Ubarana, Brazil
Current Conditions -  °F | °C
As of 1:00 PM on Wednesday 28 Jan 2015 (Local Time) from SBSR Reporting Station
Clear Clear  
Wind Chill: 84°   Ceiling: Unl
Heat Index: 86°   Visibility: 6mi
Dew Point: 64°   Wind: 7mph
Humidity: 51%   Direction: 70°ENE
Pressure: 30"   Gusts: NA
Location:  21.17°S, 49.72°W
Report Text: SBSR 281500Z 07006KT CAVOK 29/18 Q1016
Loading
Personal Weather Stations






























Interactive Weather Map New forecast layout! Learn more

10-Day Weather Forecast

Advertisements
Track Severe Weather on mobile